sensor_id;sensor_type;location;lat;lon;timestamp;temperature;humidity
62154;DHT22;48140;45.486;9.226;2023-06-14T00:00:22;21.70;99.90
62154;DHT22;48140;45.486;9.226;2023-06-14T00:02:48;21.70;99.90
62154;DHT22;48140;45.486;9.226;2023-06-14T00:05:13;21.60;99.90
62154;DHT22;48140;45.486;9.226;2023-06-14T00:07:41;21.60;99.90
62154;DHT22;48140;45.486;9.226;2023-06-14T00:10:13;21.70;99.90
62154;DHT22;48140;45.486;9.226;2023-06-14T00:12:39;21.50;99.90
62154;DHT22;48140;45.486;9.226;2023-06-14T00:15:06;21.40;99.90
62154;DHT22;48140;45.486;9.226;2023-06-14T00:17:32;21.50;99.90
62154;DHT22;48140;45.486;9.226;2023-06-14T00:20:00;21.40;99.90
62154;DHT22;48140;45.486;9.226;2023-06-14T00:22:25;21.40;99.90
62154;DHT22;48140;45.486;9.226;2023-06-14T00:24:52;21.40;99.90
62154;DHT22;48140;45.486;9.226;2023-06-14T00:27:17;21.30;99.90
62154;DHT22;48140;45.486;9.226;2023-06-14T00:29:43;21.30;99.90
62154;DHT22;48140;45.486;9.226;2023-06-14T00:32:09;21.30;99.90
62154;DHT22;48140;45.486;9.226;2023-06-14T00:34:35;21.30;99.90
62154;DHT22;48140;45.486;9.226;2023-06-14T00:37:01;21.20;99.90
62154;DHT22;48140;45.486;9.226;2023-06-14T00:39:26;21.20;99.90
62154;DHT22;48140;45.486;9.226;2023-06-14T00:41:52;21.20;99.90
62154;DHT22;48140;45.486;9.226;2023-06-14T00:44:18;21.10;99.90
62154;DHT22;48140;45.486;9.226;2023-06-14T00:46:45;21.20;99.90
62154;DHT22;48140;45.486;9.226;2023-06-14T00:49:12;21.20;99.90
62154;DHT22;48140;45.486;9.226;2023-06-14T00:51:38;21.10;99.90
62154;DHT22;48140;45.486;9.226;2023-06-14T00:54:04;21.00;99.90
62154;DHT22;48140;45.486;9.226;2023-06-14T00:56:30;21.10;99.90
62154;DHT22;48140;45.486;9.226;2023-06-14T00:58:56;21.00;99.90
62154;DHT22;48140;45.486;9.226;2023-06-14T01:01:23;21.00;99.90
62154;DHT22;48140;45.486;9.226;2023-06-14T01:03:49;20.90;99.90
62154;DHT22;48140;45.486;9.226;2023-06-14T01:06:27;20.70;99.90
62154;DHT22;48140;45.486;9.226;2023-06-14T01:09:24;20.70;99.90
62154;DHT22;48140;45.486;9.226;2023-06-14T01:12:13;20.60;99.90
62154;DHT22;48140;45.486;9.226;2023-06-14T01:14:41;20.40;99.90
62154;DHT22;48140;45.486;9.226;2023-06-14T01:17:09;20.30;99.90
62154;DHT22;48140;45.486;9.226;2023-06-14T01:19:43;20.30;99.90
62154;DHT22;48140;45.486;9.226;2023-06-14T01:22:10;20.20;99.90
62154;DHT22;48140;45.486;9.226;2023-06-14T01:24:36;20.20;99.90
62154;DHT22;48140;45.486;9.226;2023-06-14T01:27:02;20.20;99.90
62154;DHT22;48140;45.486;9.226;2023-06-14T01:29:29;20.20;99.90
62154;DHT22;48140;45.486;9.226;2023-06-14T01:31:58;20.20;99.90
62154;DHT22;48140;45.486;9.226;2023-06-14T01:34:25;20.10;99.90
62154;DHT22;48140;45.486;9.226;2023-06-14T01:36:52;20.10;99.90
62154;DHT22;48140;45.486;9.226;2023-06-14T01:39:21;20.10;99.90
62154;DHT22;48140;45.486;9.226;2023-06-14T01:41:47;19.90;99.90
62154;DHT22;48140;45.486;9.226;2023-06-14T01:44:16;19.90;99.90
62154;DHT22;48140;45.486;9.226;2023-06-14T01:46:43;19.80;99.90
62154;DHT22;48140;45.486;9.226;2023-06-14T01:49:09;19.70;99.90
62154;DHT22;48140;45.486;9.226;2023-06-14T01:51:35;19.70;99.90
62154;DHT22;48140;45.486;9.226;2023-06-14T01:54:01;19.60;99.90
62154;DHT22;48140;45.486;9.226;2023-06-14T01:56:27;19.60;99.90
62154;DHT22;48140;45.486;9.226;2023-06-14T01:58:53;19.60;99.90
62154;DHT22;48140;45.486;9.226;2023-06-14T02:01:19;19.60;99.90
62154;DHT22;48140;45.486;9.226;2023-06-14T02:03:47;19.60;99.90
62154;DHT22;48140;45.486;9.226;2023-06-14T02:06:13;19.50;99.90
62154;DHT22;48140;45.486;9.226;2023-06-14T02:08:41;19.50;99.90
62154;DHT22;48140;45.486;9.226;2023-06-14T02:11:07;19.50;99.90
62154;DHT22;48140;45.486;9.226;2023-06-14T02:13:32;19.40;99.90
62154;DHT22;48140;45.486;9.226;2023-06-14T02:15:58;19.40;99.90
62154;DHT22;48140;45.486;9.226;2023-06-14T02:18:25;19.30;99.90
62154;DHT22;48140;45.486;9.226;2023-06-14T02:20:50;19.40;99.90
62154;DHT22;48140;45.486;9.226;2023-06-14T02:23:16;19.30;99.90
62154;DHT22;48140;45.486;9.226;2023-06-14T02:25:41;19.20;99.90
62154;DHT22;48140;45.486;9.226;2023-06-14T02:28:08;19.20;99.90
62154;DHT22;48140;45.486;9.226;2023-06-14T02:30:34;19.20;99.90
62154;DHT22;48140;45.486;9.226;2023-06-14T02:33:00;19.20;99.90
62154;DHT22;48140;45.486;9.226;2023-06-14T02:35:25;19.20;99.90
62154;DHT22;48140;45.486;9.226;2023-06-14T02:37:52;19.20;99.90
62154;DHT22;48140;45.486;9.226;2023-06-14T02:40:19;19.20;99.90
62154;DHT22;48140;45.486;9.226;2023-06-14T02:42:44;19.20;99.90
62154;DHT22;48140;45.486;9.226;2023-06-14T02:45:10;19.20;99.90
62154;DHT22;48140;45.486;9.226;2023-06-14T02:47:36;19.20;99.90
62154;DHT22;48140;45.486;9.226;2023-06-14T02:50:02;19.20;99.90
62154;DHT22;48140;45.486;9.226;2023-06-14T02:52:28;19.20;99.90
62154;DHT22;48140;45.486;9.226;2023-06-14T02:54:54;19.30;99.90
62154;DHT22;48140;45.486;9.226;2023-06-14T02:57:20;19.30;99.90
62154;DHT22;48140;45.486;9.226;2023-06-14T02:59:46;19.30;99.90
62154;DHT22;48140;45.486;9.226;2023-06-14T03:02:12;19.30;99.90
62154;DHT22;48140;45.486;9.226;2023-06-14T03:04:37;19.20;99.90
62154;DHT22;48140;45.486;9.226;2023-06-14T03:07:03;19.20;99.90
62154;DHT22;48140;45.486;9.226;2023-06-14T03:09:37;19.20;99.90
62154;DHT22;48140;45.486;9.226;2023-06-14T03:12:05;19.10;99.90
62154;DHT22;48140;45.486;9.226;2023-06-14T03:14:32;19.10;99.90
62154;DHT22;48140;45.486;9.226;2023-06-14T03:16:58;19.10;99.90
62154;DHT22;48140;45.486;9.226;2023-06-14T03:19:24;19.10;99.90
62154;DHT22;48140;45.486;9.226;2023-06-14T03:21:51;19.10;99.90
62154;DHT22;48140;45.486;9.226;2023-06-14T03:24:17;19.10;99.90
62154;DHT22;48140;45.486;9.226;2023-06-14T03:26:43;19.00;99.90
62154;DHT22;48140;45.486;9.226;2023-06-14T03:29:08;19.10;99.90
62154;DHT22;48140;45.486;9.226;2023-06-14T03:31:35;19.10;99.90
62154;DHT22;48140;45.486;9.226;2023-06-14T03:34:03;19.10;99.90
62154;DHT22;48140;45.486;9.226;2023-06-14T03:36:29;19.10;99.90
62154;DHT22;48140;45.486;9.226;2023-06-14T03:38:55;19.00;99.90
62154;DHT22;48140;45.486;9.226;2023-06-14T03:41:20;19.00;99.90
62154;DHT22;48140;45.486;9.226;2023-06-14T03:43:46;19.00;99.90
62154;DHT22;48140;45.486;9.226;2023-06-14T03:46:12;19.00;99.90
62154;DHT22;48140;45.486;9.226;2023-06-14T03:48:37;18.90;99.90
62154;DHT22;48140;45.486;9.226;2023-06-14T03:51:04;18.90;99.90
62154;DHT22;48140;45.486;9.226;2023-06-14T03:53:30;18.90;99.90
62154;DHT22;48140;45.486;9.226;2023-06-14T03:55:57;19.00;99.90
62154;DHT22;48140;45.486;9.226;2023-06-14T03:58:23;19.00;99.90
62154;DHT22;48140;45.486;9.226;2023-06-14T04:00:49;19.00;99.90
62154;DHT22;48140;45.486;9.226;2023-06-14T04:03:15;19.00;99.90
62154;DHT22;48140;45.486;9.226;2023-06-14T04:05:42;19.00;99.90
62154;DHT22;48140;45.486;9.226;2023-06-14T04:08:08;18.90;99.90
62154;DHT22;48140;45.486;9.226;2023-06-14T04:10:35;18.90;99.90
62154;DHT22;48140;45.486;9.226;2023-06-14T04:13:00;18.80;99.90
62154;DHT22;48140;45.486;9.226;2023-06-14T04:15:26;18.80;99.90
62154;DHT22;48140;45.486;9.226;2023-06-14T04:17:53;18.70;99.90
62154;DHT22;48140;45.486;9.226;2023-06-14T04:20:23;18.70;99.90
62154;DHT22;48140;45.486;9.226;2023-06-14T04:22:51;18.70;99.90
62154;DHT22;48140;45.486;9.226;2023-06-14T04:25:18;18.70;99.90
62154;DHT22;48140;45.486;9.226;2023-06-14T04:27:43;18.70;99.90
62154;DHT22;48140;45.486;9.226;2023-06-14T04:30:09;18.70;99.90
62154;DHT22;48140;45.486;9.226;2023-06-14T04:32:36;18.70;99.90
62154;DHT22;48140;45.486;9.226;2023-06-14T04:35:05;18.70;99.90
62154;DHT22;48140;45.486;9.226;2023-06-14T04:37:31;18.80;99.90
62154;DHT22;48140;45.486;9.226;2023-06-14T04:39:57;18.70;99.90
62154;DHT22;48140;45.486;9.226;2023-06-14T04:42:23;18.70;99.90
62154;DHT22;48140;45.486;9.226;2023-06-14T04:44:56;18.70;99.90
62154;DHT22;48140;45.486;9.226;2023-06-14T04:47:23;18.70;99.90
62154;DHT22;48140;45.486;9.226;2023-06-14T04:49:55;18.70;99.90
62154;DHT22;48140;45.486;9.226;2023-06-14T04:52:21;18.70;99.90
62154;DHT22;48140;45.486;9.226;2023-06-14T04:54:47;18.80;99.90
62154;DHT22;48140;45.486;9.226;2023-06-14T04:57:13;18.90;99.90
62154;DHT22;48140;45.486;9.226;2023-06-14T04:59:40;18.90;99.90
62154;DHT22;48140;45.486;9.226;2023-06-14T05:02:06;18.80;99.90
62154;DHT22;48140;45.486;9.226;2023-06-14T05:04:32;18.80;99.90
62154;DHT22;48140;45.486;9.226;2023-06-14T05:06:59;18.80;99.90
62154;DHT22;48140;45.486;9.226;2023-06-14T05:09:36;18.70;99.90
62154;DHT22;48140;45.486;9.226;2023-06-14T05:12:05;18.70;99.90
62154;DHT22;48140;45.486;9.226;2023-06-14T05:14:35;18.70;99.90
62154;DHT22;48140;45.486;9.226;2023-06-14T05:17:01;18.70;99.90
62154;DHT22;48140;45.486;9.226;2023-06-14T05:19:28;18.70;99.90
62154;DHT22;48140;45.486;9.226;2023-06-14T05:21:53;18.80;99.90
62154;DHT22;48140;45.486;9.226;2023-06-14T05:24:19;18.80;99.90
62154;DHT22;48140;45.486;9.226;2023-06-14T05:26:46;18.80;99.90
62154;DHT22;48140;45.486;9.226;2023-06-14T05:29:12;18.90;99.90
62154;DHT22;48140;45.486;9.226;2023-06-14T05:31:37;19.00;99.90
62154;DHT22;48140;45.486;9.226;2023-06-14T05:34:03;19.10;99.90
62154;DHT22;48140;45.486;9.226;2023-06-14T05:36:30;19.10;99.90
62154;DHT22;48140;45.486;9.226;2023-06-14T05:38:55;19.20;99.90
62154;DHT22;48140;45.486;9.226;2023-06-14T05:41:24;19.30;99.90
62154;DHT22;48140;45.486;9.226;2023-06-14T05:43:51;19.40;99.90
62154;DHT22;48140;45.486;9.226;2023-06-14T05:46:17;19.50;99.90
62154;DHT22;48140;45.486;9.226;2023-06-14T05:48:47;19.60;99.90
62154;DHT22;48140;45.486;9.226;2023-06-14T05:51:13;19.70;99.90
62154;DHT22;48140;45.486;9.226;2023-06-14T05:53:39;19.80;99.90
62154;DHT22;48140;45.486;9.226;2023-06-14T05:56:05;19.80;99.90
62154;DHT22;48140;45.486;9.226;2023-06-14T05:58:31;19.90;99.90
62154;DHT22;48140;45.486;9.226;2023-06-14T06:00:56;20.00;99.90
62154;DHT22;48140;45.486;9.226;2023-06-14T06:03:24;20.00;99.90
62154;DHT22;48140;45.486;9.226;2023-06-14T06:05:49;20.00;99.90
62154;DHT22;48140;45.486;9.226;2023-06-14T06:08:15;20.00;99.90
62154;DHT22;48140;45.486;9.226;2023-06-14T06:10:42;20.10;99.90
62154;DHT22;48140;45.486;9.226;2023-06-14T06:13:08;20.20;99.90
62154;DHT22;48140;45.486;9.226;2023-06-14T06:15:33;20.30;99.90
62154;DHT22;48140;45.486;9.226;2023-06-14T06:18:00;20.30;99.90
62154;DHT22;48140;45.486;9.226;2023-06-14T06:20:25;20.40;99.90
62154;DHT22;48140;45.486;9.226;2023-06-14T06:22:56;20.50;99.90
62154;DHT22;48140;45.486;9.226;2023-06-14T06:25:23;20.50;99.90
62154;DHT22;48140;45.486;9.226;2023-06-14T06:27:51;20.60;99.90
62154;DHT22;48140;45.486;9.226;2023-06-14T06:30:17;20.80;99.90
62154;DHT22;48140;45.486;9.226;2023-06-14T06:32:43;20.80;99.90
62154;DHT22;48140;45.486;9.226;2023-06-14T06:35:10;20.90;99.90
62154;DHT22;48140;45.486;9.226;2023-06-14T06:37:36;21.00;99.90
62154;DHT22;48140;45.486;9.226;2023-06-14T06:40:02;21.00;99.90
62154;DHT22;48140;45.486;9.226;2023-06-14T06:42:31;21.10;99.90
62154;DHT22;48140;45.486;9.226;2023-06-14T06:44:57;21.10;99.90
62154;DHT22;48140;45.486;9.226;2023-06-14T06:47:22;21.20;99.90
62154;DHT22;48140;45.486;9.226;2023-06-14T06:49:48;21.20;99.90
62154;DHT22;48140;45.486;9.226;2023-06-14T06:52:14;21.20;99.90
62154;DHT22;48140;45.486;9.226;2023-06-14T06:54:40;21.20;99.90
62154;DHT22;48140;45.486;9.226;2023-06-14T06:57:06;21.30;99.90
62154;DHT22;48140;45.486;9.226;2023-06-14T06:59:32;21.30;99.90
62154;DHT22;48140;45.486;9.226;2023-06-14T07:01:58;21.40;99.90
62154;DHT22;48140;45.486;9.226;2023-06-14T07:04:24;21.40;99.90
62154;DHT22;48140;45.486;9.226;2023-06-14T07:06:49;21.60;99.90
62154;DHT22;48140;45.486;9.226;2023-06-14T07:09:16;21.60;99.90
62154;DHT22;48140;45.486;9.226;2023-06-14T07:11:43;21.60;99.90
62154;DHT22;48140;45.486;9.226;2023-06-14T07:14:09;21.60;99.90
62154;DHT22;48140;45.486;9.226;2023-06-14T07:16:37;21.70;99.90
62154;DHT22;48140;45.486;9.226;2023-06-14T07:19:03;21.70;99.90
62154;DHT22;48140;45.486;9.226;2023-06-14T07:21:29;21.70;99.90
62154;DHT22;48140;45.486;9.226;2023-06-14T07:23:55;21.70;99.90
62154;DHT22;48140;45.486;9.226;2023-06-14T07:26:21;21.70;99.90
62154;DHT22;48140;45.486;9.226;2023-06-14T07:28:47;21.80;99.90
62154;DHT22;48140;45.486;9.226;2023-06-14T07:31:15;21.80;99.90
62154;DHT22;48140;45.486;9.226;2023-06-14T07:33:42;21.80;99.90
62154;DHT22;48140;45.486;9.226;2023-06-14T07:36:08;21.80;99.90
62154;DHT22;48140;45.486;9.226;2023-06-14T07:38:34;21.80;99.90
62154;DHT22;48140;45.486;9.226;2023-06-14T07:41:00;22.00;99.90
62154;DHT22;48140;45.486;9.226;2023-06-14T07:43:26;22.10;99.90
62154;DHT22;48140;45.486;9.226;2023-06-14T07:45:51;22.10;99.90
62154;DHT22;48140;45.486;9.226;2023-06-14T07:48:18;22.10;99.70
62154;DHT22;48140;45.486;9.226;2023-06-14T07:50:44;22.10;99.90
62154;DHT22;48140;45.486;9.226;2023-06-14T07:53:10;22.10;99.50
62154;DHT22;48140;45.486;9.226;2023-06-14T07:55:35;22.10;99.40
62154;DHT22;48140;45.486;9.226;2023-06-14T07:58:06;22.20;99.10
62154;DHT22;48140;45.486;9.226;2023-06-14T08:00:32;22.20;99.00
62154;DHT22;48140;45.486;9.226;2023-06-14T08:02:57;22.40;98.50
62154;DHT22;48140;45.486;9.226;2023-06-14T08:05:25;22.40;97.80
62154;DHT22;48140;45.486;9.226;2023-06-14T08:07:51;22.50;97.50
62154;DHT22;48140;45.486;9.226;2023-06-14T08:10:17;22.60;96.80
62154;DHT22;48140;45.486;9.226;2023-06-14T08:12:43;22.60;97.00
62154;DHT22;48140;45.486;9.226;2023-06-14T08:15:09;22.70;96.50
62154;DHT22;48140;45.486;9.226;2023-06-14T08:17:35;22.70;96.90
62154;DHT22;48140;45.486;9.226;2023-06-14T08:20:00;22.80;97.10
62154;DHT22;48140;45.486;9.226;2023-06-14T08:22:26;22.90;96.50
62154;DHT22;48140;45.486;9.226;2023-06-14T08:24:53;22.90;95.90
62154;DHT22;48140;45.486;9.226;2023-06-14T08:27:20;22.90;95.40
62154;DHT22;48140;45.486;9.226;2023-06-14T08:29:46;23.00;95.50
62154;DHT22;48140;45.486;9.226;2023-06-14T08:32:12;23.10;95.10
62154;DHT22;48140;45.486;9.226;2023-06-14T08:34:37;23.20;95.10
62154;DHT22;48140;45.486;9.226;2023-06-14T08:37:03;23.30;94.60
62154;DHT22;48140;45.486;9.226;2023-06-14T08:39:29;23.30;94.40
62154;DHT22;48140;45.486;9.226;2023-06-14T08:41:56;23.40;94.40
62154;DHT22;48140;45.486;9.226;2023-06-14T08:44:22;23.50;93.80
62154;DHT22;48140;45.486;9.226;2023-06-14T08:46:48;23.70;93.30
62154;DHT22;48140;45.486;9.226;2023-06-14T08:49:16;23.80;92.70
62154;DHT22;48140;45.486;9.226;2023-06-14T08:51:43;24.00;93.00
62154;DHT22;48140;45.486;9.226;2023-06-14T08:54:10;24.20;92.80
62154;DHT22;48140;45.486;9.226;2023-06-14T08:56:38;24.30;91.60
62154;DHT22;48140;45.486;9.226;2023-06-14T08:59:04;24.40;91.10
62154;DHT22;48140;45.486;9.226;2023-06-14T09:01:35;24.30;91.80
62154;DHT22;48140;45.486;9.226;2023-06-14T09:04:01;24.40;91.60
62154;DHT22;48140;45.486;9.226;2023-06-14T09:06:27;24.70;89.30
62154;DHT22;48140;45.486;9.226;2023-06-14T09:08:55;24.70;89.90
62154;DHT22;48140;45.486;9.226;2023-06-14T09:11:23;24.80;89.90
62154;DHT22;48140;45.486;9.226;2023-06-14T09:13:50;25.00;90.10
62154;DHT22;48140;45.486;9.226;2023-06-14T09:16:16;24.90;90.40
62154;DHT22;48140;45.486;9.226;2023-06-14T09:18:44;24.90;90.30
62154;DHT22;48140;45.486;9.226;2023-06-14T09:21:11;25.00;90.60
62154;DHT22;48140;45.486;9.226;2023-06-14T09:23:38;25.10;90.90
62154;DHT22;48140;45.486;9.226;2023-06-14T09:26:08;25.10;91.10
62154;DHT22;48140;45.486;9.226;2023-06-14T09:28:35;25.20;91.00
62154;DHT22;48140;45.486;9.226;2023-06-14T09:31:01;25.40;91.30
62154;DHT22;48140;45.486;9.226;2023-06-14T09:33:27;25.60;90.30
62154;DHT22;48140;45.486;9.226;2023-06-14T09:35:54;25.60;90.50
62154;DHT22;48140;45.486;9.226;2023-06-14T09:38:20;25.60;90.40
62154;DHT22;48140;45.486;9.226;2023-06-14T09:40:46;25.80;90.30
62154;DHT22;48140;45.486;9.226;2023-06-14T09:43:11;26.00;89.90
62154;DHT22;48140;45.486;9.226;2023-06-14T09:45:38;26.00;89.40
62154;DHT22;48140;45.486;9.226;2023-06-14T09:48:07;26.10;89.00
62154;DHT22;48140;45.486;9.226;2023-06-14T09:50:34;26.10;86.80
62154;DHT22;48140;45.486;9.226;2023-06-14T09:53:07;26.00;89.30
62154;DHT22;48140;45.486;9.226;2023-06-14T09:55:35;26.00;88.60
62154;DHT22;48140;45.486;9.226;2023-06-14T09:58:05;26.00;88.30
62154;DHT22;48140;45.486;9.226;2023-06-14T10:00:32;26.10;87.20
62154;DHT22;48140;45.486;9.226;2023-06-14T10:03:05;26.30;86.40
62154;DHT22;48140;45.486;9.226;2023-06-14T10:05:34;26.50;85.40
62154;DHT22;48140;45.486;9.226;2023-06-14T10:08:05;26.30;85.00
62154;DHT22;48140;45.486;9.226;2023-06-14T10:10:33;26.30;86.90
62154;DHT22;48140;45.486;9.226;2023-06-14T10:12:59;26.20;86.30
62154;DHT22;48140;45.486;9.226;2023-06-14T10:15:35;26.40;85.40
62154;DHT22;48140;45.486;9.226;2023-06-14T10:18:14;26.40;84.80
62154;DHT22;48140;45.486;9.226;2023-06-14T10:21:05;26.10;85.10
62154;DHT22;48140;45.486;9.226;2023-06-14T10:23:37;26.40;85.20
62154;DHT22;48140;45.486;9.226;2023-06-14T10:26:06;26.40;83.60
62154;DHT22;48140;45.486;9.226;2023-06-14T10:28:32;26.60;83.20
62154;DHT22;48140;45.486;9.226;2023-06-14T10:31:06;26.50;81.90
62154;DHT22;48140;45.486;9.226;2023-06-14T10:33:39;26.20;80.20
62154;DHT22;48140;45.486;9.226;2023-06-14T10:36:08;26.20;81.80
62154;DHT22;48140;45.486;9.226;2023-06-14T10:38:36;26.20;81.40
62154;DHT22;48140;45.486;9.226;2023-06-14T10:41:04;26.50;82.50
62154;DHT22;48140;45.486;9.226;2023-06-14T10:43:31;26.60;80.90
62154;DHT22;48140;45.486;9.226;2023-06-14T10:46:15;26.60;79.90
62154;DHT22;48140;45.486;9.226;2023-06-14T10:48:42;26.20;76.60
62154;DHT22;48140;45.486;9.226;2023-06-14T10:51:20;26.20;81.80
62154;DHT22;48140;45.486;9.226;2023-06-14T10:53:50;26.60;80.70
62154;DHT22;48140;45.486;9.226;2023-06-14T10:56:32;26.90;78.50
62154;DHT22;48140;45.486;9.226;2023-06-14T10:58:58;27.30;77.30
62154;DHT22;48140;45.486;9.226;2023-06-14T11:04:13;27.40;72.10
62154;DHT22;48140;45.486;9.226;2023-06-14T11:06:46;27.40;71.10
62154;DHT22;48140;45.486;9.226;2023-06-14T11:11:51;27.80;65.50
62154;DHT22;48140;45.486;9.226;2023-06-14T11:14:19;28.10;61.80
62154;DHT22;48140;45.486;9.226;2023-06-14T11:16:51;28.20;61.50
62154;DHT22;48140;45.486;9.226;2023-06-14T11:19:16;28.10;61.80
62154;DHT22;48140;45.486;9.226;2023-06-14T11:21:47;28.00;64.10
62154;DHT22;48140;45.486;9.226;2023-06-14T11:24:13;28.30;67.50
62154;DHT22;48140;45.486;9.226;2023-06-14T11:26:40;28.50;66.40
62154;DHT22;48140;45.486;9.226;2023-06-14T11:29:06;28.70;65.10
62154;DHT22;48140;45.486;9.226;2023-06-14T11:31:31;28.60;66.10
62154;DHT22;48140;45.486;9.226;2023-06-14T11:33:58;28.40;65.50
62154;DHT22;48140;45.486;9.226;2023-06-14T11:36:28;28.50;66.20
62154;DHT22;48140;45.486;9.226;2023-06-14T11:39:04;28.60;64.20
62154;DHT22;48140;45.486;9.226;2023-06-14T11:41:45;28.80;62.30
62154;DHT22;48140;45.486;9.226;2023-06-14T11:44:11;28.70;61.40
62154;DHT22;48140;45.486;9.226;2023-06-14T11:46:39;28.50;60.50
62154;DHT22;48140;45.486;9.226;2023-06-14T11:49:07;28.40;58.30
62154;DHT22;48140;45.486;9.226;2023-06-14T11:51:34;28.30;58.60
62154;DHT22;48140;45.486;9.226;2023-06-14T11:54:01;27.90;57.00
62154;DHT22;48140;45.486;9.226;2023-06-14T11:56:28;27.80;59.00
62154;DHT22;48140;45.486;9.226;2023-06-14T11:58:54;28.10;58.90
62154;DHT22;48140;45.486;9.226;2023-06-14T12:01:22;28.20;61.40
62154;DHT22;48140;45.486;9.226;2023-06-14T12:03:49;28.20;57.90
62154;DHT22;48140;45.486;9.226;2023-06-14T12:06:16;28.40;56.40
62154;DHT22;48140;45.486;9.226;2023-06-14T12:08:50;28.60;57.30
62154;DHT22;48140;45.486;9.226;2023-06-14T12:11:16;28.70;56.40
62154;DHT22;48140;45.486;9.226;2023-06-14T12:13:43;28.30;55.10
62154;DHT22;48140;45.486;9.226;2023-06-14T12:16:09;28.60;55.60
62154;DHT22;48140;45.486;9.226;2023-06-14T12:18:36;29.20;56.00
62154;DHT22;48140;45.486;9.226;2023-06-14T12:21:09;28.50;56.80
62154;DHT22;48140;45.486;9.226;2023-06-14T12:23:53;28.70;58.50
62154;DHT22;48140;45.486;9.226;2023-06-14T12:26:19;29.10;57.00
62154;DHT22;48140;45.486;9.226;2023-06-14T12:28:47;29.70;54.50
62154;DHT22;48140;45.486;9.226;2023-06-14T12:31:14;30.00;53.50
62154;DHT22;48140;45.486;9.226;2023-06-14T12:33:40;30.40;50.20
62154;DHT22;48140;45.486;9.226;2023-06-14T12:36:08;30.40;50.00
62154;DHT22;48140;45.486;9.226;2023-06-14T12:38:34;30.50;50.20
62154;DHT22;48140;45.486;9.226;2023-06-14T12:41:01;30.70;49.60
62154;DHT22;48140;45.486;9.226;2023-06-14T12:43:27;31.00;49.10
62154;DHT22;48140;45.486;9.226;2023-06-14T12:45:53;31.00;48.00
62154;DHT22;48140;45.486;9.226;2023-06-14T12:48:19;31.20;46.60
62154;DHT22;48140;45.486;9.226;2023-06-14T12:50:45;31.30;45.10
62154;DHT22;48140;45.486;9.226;2023-06-14T12:53:11;31.60;43.80
62154;DHT22;48140;45.486;9.226;2023-06-14T12:55:37;31.60;42.50
62154;DHT22;48140;45.486;9.226;2023-06-14T12:58:04;31.70;41.90
62154;DHT22;48140;45.486;9.226;2023-06-14T13:00:29;31.70;41.60
62154;DHT22;48140;45.486;9.226;2023-06-14T13:02:56;32.00;41.40
62154;DHT22;48140;45.486;9.226;2023-06-14T13:05:22;32.10;40.10
62154;DHT22;48140;45.486;9.226;2023-06-14T13:07:48;31.70;41.50
62154;DHT22;48140;45.486;9.226;2023-06-14T13:10:13;31.50;41.10
62154;DHT22;48140;45.486;9.226;2023-06-14T13:12:39;30.70;42.20
62154;DHT22;48140;45.486;9.226;2023-06-14T13:15:06;30.80;43.40
62154;DHT22;48140;45.486;9.226;2023-06-14T13:17:34;31.00;44.70
62154;DHT22;48140;45.486;9.226;2023-06-14T13:20:05;31.00;43.00
62154;DHT22;48140;45.486;9.226;2023-06-14T13:22:32;31.00;42.80
62154;DHT22;48140;45.486;9.226;2023-06-14T13:24:58;31.00;43.10
62154;DHT22;48140;45.486;9.226;2023-06-14T13:27:24;31.30;41.20
62154;DHT22;48140;45.486;9.226;2023-06-14T13:29:50;31.00;41.10
62154;DHT22;48140;45.486;9.226;2023-06-14T13:32:16;31.00;42.00
62154;DHT22;48140;45.486;9.226;2023-06-14T13:34:41;31.30;41.00
62154;DHT22;48140;45.486;9.226;2023-06-14T13:37:08;31.60;40.70
62154;DHT22;48140;45.486;9.226;2023-06-14T13:39:34;31.90;40.40
62154;DHT22;48140;45.486;9.226;2023-06-14T13:42:02;32.20;40.20
62154;DHT22;48140;45.486;9.226;2023-06-14T13:44:28;31.90;39.00
62154;DHT22;48140;45.486;9.226;2023-06-14T13:46:54;32.10;40.40
62154;DHT22;48140;45.486;9.226;2023-06-14T13:49:19;32.20;41.70
62154;DHT22;48140;45.486;9.226;2023-06-14T13:51:46;32.10;41.70
62154;DHT22;48140;45.486;9.226;2023-06-14T13:54:12;32.30;41.30
62154;DHT22;48140;45.486;9.226;2023-06-14T13:56:39;32.10;41.80
62154;DHT22;48140;45.486;9.226;2023-06-14T13:59:12;32.30;41.80
62154;DHT22;48140;45.486;9.226;2023-06-14T14:01:37;32.60;41.40
62154;DHT22;48140;45.486;9.226;2023-06-14T14:04:03;32.70;41.20
62154;DHT22;48140;45.486;9.226;2023-06-14T14:06:30;32.50;41.40
62154;DHT22;48140;45.486;9.226;2023-06-14T14:08:56;32.20;40.50
62154;DHT22;48140;45.486;9.226;2023-06-14T14:11:21;31.50;41.40
62154;DHT22;48140;45.486;9.226;2023-06-14T14:13:47;31.70;41.60
62154;DHT22;48140;45.486;9.226;2023-06-14T14:16:13;32.00;41.10
62154;DHT22;48140;45.486;9.226;2023-06-14T14:18:39;32.40;39.00
62154;DHT22;48140;45.486;9.226;2023-06-14T14:21:04;32.30;38.90
62154;DHT22;48140;45.486;9.226;2023-06-14T14:23:30;32.50;37.80
62154;DHT22;48140;45.486;9.226;2023-06-14T14:25:56;32.70;37.20
62154;DHT22;48140;45.486;9.226;2023-06-14T14:28:23;33.00;36.60
62154;DHT22;48140;45.486;9.226;2023-06-14T14:30:48;33.10;37.00
62154;DHT22;48140;45.486;9.226;2023-06-14T14:33:15;33.30;37.50
62154;DHT22;48140;45.486;9.226;2023-06-14T14:35:44;33.30;37.60
62154;DHT22;48140;45.486;9.226;2023-06-14T14:38:13;32.80;38.00
62154;DHT22;48140;45.486;9.226;2023-06-14T14:40:40;31.10;41.30
62154;DHT22;48140;45.486;9.226;2023-06-14T14:43:06;30.50;42.60
62154;DHT22;48140;45.486;9.226;2023-06-14T14:45:32;29.90;43.60
62154;DHT22;48140;45.486;9.226;2023-06-14T14:47:58;29.90;45.80
62154;DHT22;48140;45.486;9.226;2023-06-14T14:50:25;30.30;44.10
62154;DHT22;48140;45.486;9.226;2023-06-14T14:52:51;30.70;42.90
62154;DHT22;48140;45.486;9.226;2023-06-14T14:55:17;30.80;43.40
62154;DHT22;48140;45.486;9.226;2023-06-14T14:57:43;30.80;42.40
62154;DHT22;48140;45.486;9.226;2023-06-14T15:00:09;30.70;42.50
62154;DHT22;48140;45.486;9.226;2023-06-14T15:02:35;30.70;42.50
62154;DHT22;48140;45.486;9.226;2023-06-14T15:05:01;30.50;43.10
62154;DHT22;48140;45.486;9.226;2023-06-14T15:07:28;30.70;42.90
62154;DHT22;48140;45.486;9.226;2023-06-14T15:09:55;30.90;42.60
62154;DHT22;48140;45.486;9.226;2023-06-14T15:12:21;31.00;42.00
62154;DHT22;48140;45.486;9.226;2023-06-14T15:14:55;31.00;40.70
62154;DHT22;48140;45.486;9.226;2023-06-14T15:17:21;29.30;44.10
62154;DHT22;48140;45.486;9.226;2023-06-14T15:19:47;30.00;44.40
62154;DHT22;48140;45.486;9.226;2023-06-14T15:22:13;30.90;43.30
62154;DHT22;48140;45.486;9.226;2023-06-14T15:24:43;31.40;41.60
62154;DHT22;48140;45.486;9.226;2023-06-14T15:27:08;31.70;40.50
62154;DHT22;48140;45.486;9.226;2023-06-14T15:29:34;31.70;40.50
62154;DHT22;48140;45.486;9.226;2023-06-14T15:32:03;31.40;41.20
62154;DHT22;48140;45.486;9.226;2023-06-14T15:34:30;30.90;41.80